sensor_id;sensor_type;location;lat;lon;timestamp;temperature;humidity
38606;DHT22;24365;48.446;8.850;2023-03-22T00:01:28;10.30;59.60
38606;DHT22;24365;48.446;8.850;2023-03-22T00:06:30;10.20;59.80
38606;DHT22;24365;48.446;8.850;2023-03-22T00:11:31;10.10;59.90
38606;DHT22;24365;48.446;8.850;2023-03-22T00:16:32;10.00;60.20
38606;DHT22;24365;48.446;8.850;2023-03-22T00:21:32;9.90;60.40
38606;DHT22;24365;48.446;8.850;2023-03-22T00:26:33;9.70;60.60
38606;DHT22;24365;48.446;8.850;2023-03-22T00:31:34;9.60;61.00
38606;DHT22;24365;48.446;8.850;2023-03-22T00:36:35;9.60;60.60
38606;DHT22;24365;48.446;8.850;2023-03-22T00:41:37;9.50;61.10
38606;DHT22;24365;48.446;8.850;2023-03-22T00:46:39;9.50;60.70
38606;DHT22;24365;48.446;8.850;2023-03-22T00:51:40;9.50;60.60
38606;DHT22;24365;48.446;8.850;2023-03-22T00:56:41;9.40;60.40
38606;DHT22;24365;48.446;8.850;2023-03-22T01:01:48;9.30;60.80
38606;DHT22;24365;48.446;8.850;2023-03-22T01:06:49;9.20;60.70
38606;DHT22;24365;48.446;8.850;2023-03-22T01:11:51;9.10;60.80
38606;DHT22;24365;48.446;8.850;2023-03-22T01:16:52;9.10;60.50
38606;DHT22;24365;48.446;8.850;2023-03-22T01:21:57;9.00;60.40
38606;DHT22;24365;48.446;8.850;2023-03-22T01:26:58;8.90;60.30
38606;DHT22;24365;48.446;8.850;2023-03-22T01:31:59;8.80;60.10
38606;DHT22;24365;48.446;8.850;2023-03-22T01:37:00;8.70;60.40
38606;DHT22;24365;48.446;8.850;2023-03-22T01:42:02;8.70;60.70
38606;DHT22;24365;48.446;8.850;2023-03-22T01:47:07;8.60;60.40
38606;DHT22;24365;48.446;8.850;2023-03-22T01:52:10;8.50;60.90
38606;DHT22;24365;48.446;8.850;2023-03-22T01:57:28;8.30;61.10
38606;DHT22;24365;48.446;8.850;2023-03-22T02:02:30;8.20;61.20
38606;DHT22;24365;48.446;8.850;2023-03-22T02:07:51;8.10;61.30
38606;DHT22;24365;48.446;8.850;2023-03-22T02:13:22;8.10;61.50
38606;DHT22;24365;48.446;8.850;2023-03-22T02:18:53;8.00;61.50
38606;DHT22;24365;48.446;8.850;2023-03-22T02:29:18;7.80;62.00
38606;DHT22;24365;48.446;8.850;2023-03-22T02:39:34;7.50;62.00
38606;DHT22;24365;48.446;8.850;2023-03-22T02:44:44;7.50;62.20
38606;DHT22;24365;48.446;8.850;2023-03-22T02:54:55;7.30;62.30
38606;DHT22;24365;48.446;8.850;2023-03-22T03:00:03;7.30;62.70
38606;DHT22;24365;48.446;8.850;2023-03-22T03:05:10;7.20;62.70
38606;DHT22;24365;48.446;8.850;2023-03-22T03:10:14;7.10;62.70
38606;DHT22;24365;48.446;8.850;2023-03-22T03:15:18;7.00;63.10
38606;DHT22;24365;48.446;8.850;2023-03-22T03:30:24;6.90;63.60
38606;DHT22;24365;48.446;8.850;2023-03-22T03:35:31;6.80;63.50
38606;DHT22;24365;48.446;8.850;2023-03-22T03:40:33;6.70;63.50
38606;DHT22;24365;48.446;8.850;2023-03-22T03:45:38;6.70;63.70
38606;DHT22;24365;48.446;8.850;2023-03-22T03:50:40;6.60;63.60
38606;DHT22;24365;48.446;8.850;2023-03-22T03:55:42;6.50;63.40
38606;DHT22;24365;48.446;8.850;2023-03-22T04:00:43;6.40;63.70
38606;DHT22;24365;48.446;8.850;2023-03-22T04:06:19;6.30;64.70
38606;DHT22;24365;48.446;8.850;2023-03-22T04:11:25;6.20;64.50
38606;DHT22;24365;48.446;8.850;2023-03-22T04:16:32;6.30;64.60
38606;DHT22;24365;48.446;8.850;2023-03-22T04:21:33;6.20;64.30
38606;DHT22;24365;48.446;8.850;2023-03-22T04:26:36;6.10;64.50
38606;DHT22;24365;48.446;8.850;2023-03-22T04:31:55;6.00;64.60
38606;DHT22;24365;48.446;8.850;2023-03-22T04:37:09;6.00;64.50
38606;DHT22;24365;48.446;8.850;2023-03-22T04:42:15;5.90;64.70
38606;DHT22;24365;48.446;8.850;2023-03-22T04:47:16;5.90;64.80
38606;DHT22;24365;48.446;8.850;2023-03-22T04:52:19;5.90;64.60
38606;DHT22;24365;48.446;8.850;2023-03-22T04:57:29;5.90;64.30
38606;DHT22;24365;48.446;8.850;2023-03-22T05:02:30;5.80;64.40
38606;DHT22;24365;48.446;8.850;2023-03-22T05:07:32;5.80;64.10
38606;DHT22;24365;48.446;8.850;2023-03-22T05:12:35;5.60;64.70
38606;DHT22;24365;48.446;8.850;2023-03-22T05:17:47;5.40;65.70
38606;DHT22;24365;48.446;8.850;2023-03-22T05:22:49;5.20;67.20
38606;DHT22;24365;48.446;8.850;2023-03-22T05:27:52;5.20;67.50
38606;DHT22;24365;48.446;8.850;2023-03-22T05:33:16;5.20;68.50
38606;DHT22;24365;48.446;8.850;2023-03-22T05:38:30;5.20;67.10
38606;DHT22;24365;48.446;8.850;2023-03-22T05:43:34;5.30;66.60
38606;DHT22;24365;48.446;8.850;2023-03-22T05:48:36;5.30;66.30
38606;DHT22;24365;48.446;8.850;2023-03-22T05:53:38;5.20;66.00
38606;DHT22;24365;48.446;8.850;2023-03-22T05:59:03;5.30;65.90
38606;DHT22;24365;48.446;8.850;2023-03-22T06:04:06;5.20;65.80
38606;DHT22;24365;48.446;8.850;2023-03-22T06:09:25;5.20;66.00
38606;DHT22;24365;48.446;8.850;2023-03-22T06:14:28;5.20;66.10
38606;DHT22;24365;48.446;8.850;2023-03-22T06:19:43;5.10;68.10
38606;DHT22;24365;48.446;8.850;2023-03-22T06:24:47;4.90;69.20
38606;DHT22;24365;48.446;8.850;2023-03-22T06:29:53;4.90;70.00
38606;DHT22;24365;48.446;8.850;2023-03-22T06:34:58;4.90;71.70
38606;DHT22;24365;48.446;8.850;2023-03-22T06:39:59;4.90;71.60
38606;DHT22;24365;48.446;8.850;2023-03-22T06:45:01;5.00;71.20
38606;DHT22;24365;48.446;8.850;2023-03-22T06:50:12;4.80;72.50
38606;DHT22;24365;48.446;8.850;2023-03-22T06:55:44;4.80;72.70
38606;DHT22;24365;48.446;8.850;2023-03-22T07:00:49;4.90;73.90
38606;DHT22;24365;48.446;8.850;2023-03-22T07:05:58;4.90;73.30
38606;DHT22;24365;48.446;8.850;2023-03-22T07:11:00;5.10;74.30
38606;DHT22;24365;48.446;8.850;2023-03-22T07:16:01;5.30;74.70
38606;DHT22;24365;48.446;8.850;2023-03-22T07:21:09;5.60;74.70
38606;DHT22;24365;48.446;8.850;2023-03-22T07:26:13;5.80;72.90
38606;DHT22;24365;48.446;8.850;2023-03-22T07:31:18;6.00;71.30
38606;DHT22;24365;48.446;8.850;2023-03-22T07:36:29;6.40;71.30
38606;DHT22;24365;48.446;8.850;2023-03-22T07:41:31;6.60;71.40
38606;DHT22;24365;48.446;8.850;2023-03-22T07:46:51;6.80;71.50
38606;DHT22;24365;48.446;8.850;2023-03-22T07:51:56;7.10;72.00
38606;DHT22;24365;48.446;8.850;2023-03-22T07:56:58;7.40;71.80
38606;DHT22;24365;48.446;8.850;2023-03-22T08:01:59;7.70;71.30
38606;DHT22;24365;48.446;8.850;2023-03-22T08:07:04;8.00;71.00
38606;DHT22;24365;48.446;8.850;2023-03-22T08:12:09;8.40;70.00
38606;DHT22;24365;48.446;8.850;2023-03-22T08:17:11;8.80;68.60
38606;DHT22;24365;48.446;8.850;2023-03-22T08:22:12;9.20;67.50
38606;DHT22;24365;48.446;8.850;2023-03-22T08:27:33;9.70;65.00
38606;DHT22;24365;48.446;8.850;2023-03-22T08:32:38;10.20;62.70
38606;DHT22;24365;48.446;8.850;2023-03-22T08:37:41;10.60;61.00
38606;DHT22;24365;48.446;8.850;2023-03-22T08:42:44;11.00;58.00
38606;DHT22;24365;48.446;8.850;2023-03-22T08:47:45;11.50;56.90
38606;DHT22;24365;48.446;8.850;2023-03-22T08:52:46;12.00;56.00
38606;DHT22;24365;48.446;8.850;2023-03-22T08:57:55;12.30;55.80
38606;DHT22;24365;48.446;8.850;2023-03-22T09:03:09;12.70;53.70
38606;DHT22;24365;48.446;8.850;2023-03-22T09:08:11;13.10;50.70
38606;DHT22;24365;48.446;8.850;2023-03-22T09:13:18;13.50;49.40
38606;DHT22;24365;48.446;8.850;2023-03-22T09:18:26;13.80;46.10
38606;DHT22;24365;48.446;8.850;2023-03-22T09:23:32;14.10;44.70
38606;DHT22;24365;48.446;8.850;2023-03-22T09:34:04;14.60;43.20
38606;DHT22;24365;48.446;8.850;2023-03-22T09:39:07;14.90;41.80
38606;DHT22;24365;48.446;8.850;2023-03-22T09:44:11;15.20;40.90
38606;DHT22;24365;48.446;8.850;2023-03-22T09:49:16;15.50;39.60
38606;DHT22;24365;48.446;8.850;2023-03-22T09:54:18;15.50;39.10
38606;DHT22;24365;48.446;8.850;2023-03-22T10:00:10;15.70;38.60
38606;DHT22;24365;48.446;8.850;2023-03-22T10:10:14;16.30;37.70
38606;DHT22;24365;48.446;8.850;2023-03-22T10:15:18;16.60;36.90
38606;DHT22;24365;48.446;8.850;2023-03-22T10:20:35;16.80;36.40
38606;DHT22;24365;48.446;8.850;2023-03-22T10:25:38;16.80;34.70
38606;DHT22;24365;48.446;8.850;2023-03-22T10:30:39;16.80;35.00
38606;DHT22;24365;48.446;8.850;2023-03-22T10:35:41;17.00;35.00
38606;DHT22;24365;48.446;8.850;2023-03-22T10:40:43;17.40;33.50
38606;DHT22;24365;48.446;8.850;2023-03-22T10:45:45;17.60;31.60
38606;DHT22;24365;48.446;8.850;2023-03-22T10:50:46;17.80;30.80
38606;DHT22;24365;48.446;8.850;2023-03-22T10:55:47;17.70;29.40
38606;DHT22;24365;48.446;8.850;2023-03-22T11:00:49;17.90;29.60
38606;DHT22;24365;48.446;8.850;2023-03-22T11:06:04;18.00;29.90
38606;DHT22;24365;48.446;8.850;2023-03-22T11:16:26;18.00;29.50
38606;DHT22;24365;48.446;8.850;2023-03-22T11:21:29;18.10;29.40
38606;DHT22;24365;48.446;8.850;2023-03-22T11:26:33;18.30;28.50
38606;DHT22;24365;48.446;8.850;2023-03-22T11:36:55;19.00;28.40
38606;DHT22;24365;48.446;8.850;2023-03-22T11:42:00;19.00;26.80
38606;DHT22;24365;48.446;8.850;2023-03-22T11:47:04;18.50;27.10
38606;DHT22;24365;48.446;8.850;2023-03-22T11:52:09;18.10;27.40
38606;DHT22;24365;48.446;8.850;2023-03-22T11:57:13;18.20;27.70
38606;DHT22;24365;48.446;8.850;2023-03-22T12:02:25;18.30;27.30
38606;DHT22;24365;48.446;8.850;2023-03-22T12:07:28;18.60;28.00
38606;DHT22;24365;48.446;8.850;2023-03-22T12:12:30;18.90;27.50
38606;DHT22;24365;48.446;8.850;2023-03-22T12:22:37;19.10;27.30
38606;DHT22;24365;48.446;8.850;2023-03-22T12:27:43;19.50;27.30
38606;DHT22;24365;48.446;8.850;2023-03-22T12:32:50;19.60;27.50
38606;DHT22;24365;48.446;8.850;2023-03-22T12:37:54;20.00;26.30
38606;DHT22;24365;48.446;8.850;2023-03-22T12:43:16;20.30;25.90
38606;DHT22;24365;48.446;8.850;2023-03-22T12:53:21;20.20;25.00
38606;DHT22;24365;48.446;8.850;2023-03-22T12:58:27;20.20;25.80
38606;DHT22;24365;48.446;8.850;2023-03-22T13:03:29;20.10;25.60
38606;DHT22;24365;48.446;8.850;2023-03-22T13:13:55;19.80;25.70
38606;DHT22;24365;48.446;8.850;2023-03-22T13:18:57;20.00;25.90
38606;DHT22;24365;48.446;8.850;2023-03-22T13:29:16;19.90;25.50
38606;DHT22;24365;48.446;8.850;2023-03-22T13:34:20;20.10;25.80
38606;DHT22;24365;48.446;8.850;2023-03-22T13:39:21;20.00;25.90
38606;DHT22;24365;48.446;8.850;2023-03-22T13:44:29;20.20;26.10
38606;DHT22;24365;48.446;8.850;2023-03-22T13:49:47;20.20;25.40
38606;DHT22;24365;48.446;8.850;2023-03-22T13:54:48;20.30;25.90
38606;DHT22;24365;48.446;8.850;2023-03-22T13:59:59;20.40;25.10
38606;DHT22;24365;48.446;8.850;2023-03-22T14:15:25;19.90;25.80
38606;DHT22;24365;48.446;8.850;2023-03-22T14:20:35;19.80;26.20
38606;DHT22;24365;48.446;8.850;2023-03-22T14:25:36;19.80;26.30
38606;DHT22;24365;48.446;8.850;2023-03-22T14:30:42;20.00;25.60
38606;DHT22;24365;48.446;8.850;2023-03-22T14:35:45;20.00;25.90
38606;DHT22;24365;48.446;8.850;2023-03-22T14:40:46;20.20;26.20
38606;DHT22;24365;48.446;8.850;2023-03-22T14:45:47;20.20;26.50
38606;DHT22;24365;48.446;8.850;2023-03-22T14:50:50;20.10;26.90
38606;DHT22;24365;48.446;8.850;2023-03-22T14:55:51;19.90;26.60
38606;DHT22;24365;48.446;8.850;2023-03-22T15:00:53;19.90;26.90
38606;DHT22;24365;48.446;8.850;2023-03-22T15:05:54;19.60;27.40
38606;DHT22;24365;48.446;8.850;2023-03-22T15:10:56;19.40;27.80
38606;DHT22;24365;48.446;8.850;2023-03-22T15:15:57;19.50;27.40
38606;DHT22;24365;48.446;8.850;2023-03-22T15:20:58;19.70;28.00
38606;DHT22;24365;48.446;8.850;2023-03-22T15:26:04;19.80;27.70
38606;DHT22;24365;48.446;8.850;2023-03-22T15:31:06;19.80;27.30
38606;DHT22;24365;48.446;8.850;2023-03-22T15:36:10;19.60;27.50
38606;DHT22;24365;48.446;8.850;2023-03-22T15:41:19;19.50;27.90
38606;DHT22;24365;48.446;8.850;2023-03-22T15:46:21;19.50;27.90
38606;DHT22;24365;48.446;8.850;2023-03-22T15:51:25;19.50;27.90
38606;DHT22;24365;48.446;8.850;2023-03-22T15:56:30;19.30;26.80
38606;DHT22;24365;48.446;8.850;2023-03-22T16:01:34;18.90;27.90
38606;DHT22;24365;48.446;8.850;2023-03-22T16:06:35;18.70;28.00
38606;DHT22;24365;48.446;8.850;2023-03-22T16:11:36;18.50;28.10
38606;DHT22;24365;48.446;8.850;2023-03-22T16:16:37;18.40;28.20
38606;DHT22;24365;48.446;8.850;2023-03-22T16:21:38;18.40;27.80
38606;DHT22;24365;48.446;8.850;2023-03-22T16:26:40;18.30;28.30
38606;DHT22;24365;48.446;8.850;2023-03-22T16:31:41;18.30;28.40
38606;DHT22;24365;48.446;8.850;2023-03-22T16:36:42;18.10;28.90
38606;DHT22;24365;48.446;8.850;2023-03-22T16:41:43;18.00;29.10
38606;DHT22;24365;48.446;8.850;2023-03-22T16:46:44;17.80;29.70
38606;DHT22;24365;48.446;8.850;2023-03-22T16:51:45;17.70;29.50
38606;DHT22;24365;48.446;8.850;2023-03-22T16:56:46;17.50;29.90
38606;DHT22;24365;48.446;8.850;2023-03-22T17:01:47;17.30;30.60
38606;DHT22;24365;48.446;8.850;2023-03-22T17:06:47;17.30;30.60
38606;DHT22;24365;48.446;8.850;2023-03-22T17:11:48;17.20;30.70
38606;DHT22;24365;48.446;8.850;2023-03-22T17:16:49;17.00;31.30
38606;DHT22;24365;48.446;8.850;2023-03-22T17:21:50;17.00;32.50
38606;DHT22;24365;48.446;8.850;2023-03-22T17:26:51;16.80;33.00
38606;DHT22;24365;48.446;8.850;2023-03-22T17:31:54;16.60;33.40
38606;DHT22;24365;48.446;8.850;2023-03-22T17:36:55;16.40;34.40
38606;DHT22;24365;48.446;8.850;2023-03-22T17:41:56;16.10;34.20
38606;DHT22;24365;48.446;8.850;2023-03-22T17:46:58;16.00;35.30
38606;DHT22;24365;48.446;8.850;2023-03-22T17:51:59;15.80;34.30
38606;DHT22;24365;48.446;8.850;2023-03-22T17:57:00;15.60;34.30
38606;DHT22;24365;48.446;8.850;2023-03-22T18:02:02;15.50;34.80
38606;DHT22;24365;48.446;8.850;2023-03-22T18:07:03;15.30;34.30
38606;DHT22;24365;48.446;8.850;2023-03-22T18:12:04;15.20;33.50
38606;DHT22;24365;48.446;8.850;2023-03-22T18:17:05;15.10;34.20
38606;DHT22;24365;48.446;8.850;2023-03-22T18:22:06;15.00;34.10
38606;DHT22;24365;48.446;8.850;2023-03-22T18:27:06;14.90;32.90
38606;DHT22;24365;48.446;8.850;2023-03-22T18:32:07;14.80;32.90
38606;DHT22;24365;48.446;8.850;2023-03-22T18:37:08;14.80;33.60
38606;DHT22;24365;48.446;8.850;2023-03-22T18:42:09;14.60;34.80
38606;DHT22;24365;48.446;8.850;2023-03-22T18:47:10;14.50;36.10
38606;DHT22;24365;48.446;8.850;2023-03-22T18:52:16;14.30;35.90
38606;DHT22;24365;48.446;8.850;2023-03-22T18:57:16;14.20;36.20
38606;DHT22;24365;48.446;8.850;2023-03-22T19:02:17;14.00;37.40
38606;DHT22;24365;48.446;8.850;2023-03-22T19:07:18;13.90;37.60
38606;DHT22;24365;48.446;8.850;2023-03-22T19:12:19;13.70;37.90
38606;DHT22;24365;48.446;8.850;2023-03-22T19:17:20;13.70;38.60
38606;DHT22;24365;48.446;8.850;2023-03-22T19:22:21;13.60;38.60
38606;DHT22;24365;48.446;8.850;2023-03-22T19:27:22;13.50;39.20
38606;DHT22;24365;48.446;8.850;2023-03-22T19:32:23;13.40;39.90
38606;DHT22;24365;48.446;8.850;2023-03-22T19:37:24;13.30;40.00
38606;DHT22;24365;48.446;8.850;2023-03-22T19:42:25;13.20;41.00
38606;DHT22;24365;48.446;8.850;2023-03-22T19:47:26;13.10;41.60
38606;DHT22;24365;48.446;8.850;2023-03-22T19:52:28;13.00;41.70
38606;DHT22;24365;48.446;8.850;2023-03-22T19:57:29;13.00;42.10
38606;DHT22;24365;48.446;8.850;2023-03-22T20:02:30;12.90;42.20
38606;DHT22;24365;48.446;8.850;2023-03-22T20:07:30;12.80;42.60
38606;DHT22;24365;48.446;8.850;2023-03-22T20:12:31;12.70;42.80
38606;DHT22;24365;48.446;8.850;2023-03-22T20:17:32;12.70;43.00
38606;DHT22;24365;48.446;8.850;2023-03-22T20:22:39;12.60;43.70
38606;DHT22;24365;48.446;8.850;2023-03-22T20:27:40;12.40;44.40
38606;DHT22;24365;48.446;8.850;2023-03-22T20:32:41;12.40;44.80
38606;DHT22;24365;48.446;8.850;2023-03-22T20:37:42;12.30;45.10
38606;DHT22;24365;48.446;8.850;2023-03-22T20:42:45;12.20;45.70
38606;DHT22;24365;48.446;8.850;2023-03-22T20:47:46;12.10;45.80
38606;DHT22;24365;48.446;8.850;2023-03-22T20:52:47;12.00;46.10
38606;DHT22;24365;48.446;8.850;2023-03-22T20:57:48;11.90;46.30
38606;DHT22;24365;48.446;8.850;2023-03-22T21:02:50;11.80;46.60
38606;DHT22;24365;48.446;8.850;2023-03-22T21:07:53;11.80;46.90
38606;DHT22;24365;48.446;8.850;2023-03-22T21:12:55;11.70;47.10
38606;DHT22;24365;48.446;8.850;2023-03-22T21:17:56;11.70;47.40
38606;DHT22;24365;48.446;8.850;2023-03-22T21:22:57;11.60;47.30
38606;DHT22;24365;48.446;8.850;2023-03-22T21:27:58;11.50;47.80
38606;DHT22;24365;48.446;8.850;2023-03-22T21:38:22;11.40;48.10
38606;DHT22;24365;48.446;8.850;2023-03-22T21:43:23;11.40;48.30
38606;DHT22;24365;48.446;8.850;2023-03-22T21:48:26;11.30;48.70
38606;DHT22;24365;48.446;8.850;2023-03-22T21:53:27;11.20;48.70
38606;DHT22;24365;48.446;8.850;2023-03-22T21:58:28;11.20;48.70
38606;DHT22;24365;48.446;8.850;2023-03-22T22:03:29;11.10;49.30
38606;DHT22;24365;48.446;8.850;2023-03-22T22:08:32;11.00;49.60
38606;DHT22;24365;48.446;8.850;2023-03-22T22:13:34;11.00;49.60
38606;DHT22;24365;48.446;8.850;2023-03-22T22:18:35;11.00;49.60
38606;DHT22;24365;48.446;8.850;2023-03-22T22:23:41;10.90;49.60
38606;DHT22;24365;48.446;8.850;2023-03-22T22:28:43;10.90;49.90
38606;DHT22;24365;48.446;8.850;2023-03-22T22:33:45;10.90;50.10
38606;DHT22;24365;48.446;8.850;2023-03-22T22:38:46;10.90;50.20
38606;DHT22;24365;48.446;8.850;2023-03-22T22:43:47;10.80;50.40
38606;DHT22;24365;48.446;8.850;2023-03-22T22:48:48;10.90;50.50
38606;DHT22;24365;48.446;8.850;2023-03-22T22:53:50;10.80;50.60
38606;DHT22;24365;48.446;8.850;2023-03-22T22:58:52;10.70;50.80
38606;DHT22;24365;48.446;8.850;2023-03-22T23:03:53;10.70;51.10
38606;DHT22;24365;48.446;8.850;2023-03-22T23:08:55;10.70;51.20
38606;DHT22;24365;48.446;8.850;2023-03-22T23:13:57;10.60;51.10
38606;DHT22;24365;48.446;8.850;2023-03-22T23:19:01;10.60;51.60
38606;DHT22;24365;48.446;8.850;2023-03-22T23:24:02;10.60;51.60
38606;DHT22;24365;48.446;8.850;2023-03-22T23:29:03;10.50;51.80
38606;DHT22;24365;48.446;8.850;2023-03-22T23:34:04;10.50;52.10
38606;DHT22;24365;48.446;8.850;2023-03-22T23:39:05;10.50;52.10
38606;DHT22;24365;48.446;8.850;2023-03-22T23:44:06;10.50;52.10
38606;DHT22;24365;48.446;8.850;2023-03-22T23:49:07;10.40;52.20
38606;DHT22;24365;48.446;8.850;2023-03-22T23:54:08;10.40;52.30
38606;DHT22;24365;48.446;8.850;2023-03-22T23:59:10;10.40;52.50
